Impacts TAF Board INFO
FOR SITUATIONAL AWARENESS. NOT TO BE USED FOR FLIGHT PLANNING PURPOSES.
IDs:

KPHX - Phoenix/Sky Harbor, AZ, US

Issued at 0520 UTC 20 Jan 2018
Updated at 0522 UTC 20 Jan 2018
Potential Impact None Slight Moderate High
Time<<20/18Z 20/19Z 20/20Z 20/21Z 20/22Z 20/23Z 21/00Z 21/01Z 21/02Z 21/03Z 21/04Z 21/05Z 21/06Z>>
Type PRVL PRVL PRVL PRVL PRVL PRVL PRVL PRVL PRVL PRVL PRVL PRVL PRVL
VIS >6 >6 >6 >6 >6 >6 >6 >6 >6 >6 >6 >6 >6
CIG 70 70 70 100 100 100 100 90 90 90 90 90 90
Cover OVC OVC OVC BKN BKN BKN BKN OVC OVC OVC OVC OVC OVC
FltCat VFR VFR VFR VFR VFR VFR VFR VFR VFR VFR VFR VFR VFR
WX -SHRA -SHRA -SHRA VCSH VCSH VCSH VCSH VCSH VCSH VCSH VCSH VCSH VCSH
WDir 240 240 240 280 280 280 280 250 250 250 250 250 250
WSpd 10 10 10 10 10 10 10 7 7 7 7 7 7
WGst 17 17 17 15 15 15 15 -- -- -- -- -- --

Raw TAF
KPHX 200520Z 2006/2112 11005KT P6SM SCT250
  FM201500 24010G17KT P6SM -SHRA FEW040 BKN070 OVC100
  FM202100 28010G15KT P6SM VCSH FEW050 BKN100
  FM210100 25007KT P6SM VCSH SCT050 OVC090


METAR Board
Radar Display
Forecast Discussion

FOR SITUATIONAL AWARENESS. NOT TO BE USED FOR FLIGHT PLANNING PURPOSES.